»·PEaware :: N143VT KEGE-KSLC

N143VT :: KEGE-KSLC

FLIGHT INFORMATION

Flight Status: Arrived
Operator: Privately registered:
United States
More flights under this callsign
Pilot: Anonymous 16492 (16492)
Aircraft: Unknown
(EPIC)
More flights by this aircraft type
Origin: KEGE Eagle Co Regl
United States
Destination: KSLC Salt Lake City Intl
United States
More flights between these airports :: More routes between these airports
Route: +EKR2 EKR SPANE7
File this flight plan on PilotEdge
Remarks:
Altitude:
(Current/Filed)
24,000ft
Speed:
(Current/Filed)
350kts
Departed: 12-Jul-18 05:04 PM
Arrived: 12-Jul-18 06:07 PM
Distance/Time
Traveled:
241nm/1:03
Distance/Time
To Go:
Arrived

Flight Plot

Page will automatically refresh every two minutes.

Flight plan parsing failed; only flown route is shown


Map Options




Map Legend


Flown Route
Filed Route
Departure Airport
Arrival Airport
Navaid (VOR, NDB)
Fix

Horizontal Profiles

Position Reports

Time Latitude Longitude Heading Altitude Ground
Speed
12-Jul-18 16:44 39.641153 -106.906798 82 6549ft 0kts
12-Jul-18 16:45 39.641153 -106.906798 82 6549ft 0kts
12-Jul-18 16:46 39.641153 -106.906798 82 6549ft 0kts
12-Jul-18 16:47 39.641153 -106.906798 82 6549ft 0kts
12-Jul-18 16:48 39.641153 -106.906798 82 6549ft 0kts
12-Jul-18 16:49 39.641153 -106.906798 82 6549ft 0kts
12-Jul-18 16:50 39.641153 -106.906798 82 6549ft 0kts
12-Jul-18 16:51 39.641153 -106.906798 82 6549ft 0kts
12-Jul-18 16:52 39.641153 -106.906798 82 6549ft 0kts
12-Jul-18 16:53 39.641153 -106.906798 82 6549ft 0kts
12-Jul-18 16:54 39.641153 -106.906798 82 6549ft 0kts
12-Jul-18 16:55 39.641153 -106.906798 82 6549ft 0kts
12-Jul-18 16:56 39.641153 -106.906798 82 6549ft 0kts
12-Jul-18 16:57 39.641153 -106.906798 82 6549ft 0kts
12-Jul-18 16:58 39.641153 -106.906798 82 6549ft 0kts
12-Jul-18 16:59 39.641153 -106.906798 82 6549ft 0kts
12-Jul-18 17:00 39.641174 -106.906677 65 6549ft 3kts
12-Jul-18 17:01 39.641727 -106.906159 43 6549ft 1kts
12-Jul-18 17:02 39.643085 -106.903754 82 6549ft 15kts
12-Jul-18 17:03 39.643357 -106.901931 30 6549ft 0kts
12-Jul-18 17:04 39.644264 -106.901978 346 6549ft 7kts
12-Jul-18 17:05 39.636756 -106.932835 230 7262ft 170kts
12-Jul-18 17:06 39.600679 -106.976518 223 9571ft 184kts
12-Jul-18 17:07 39.607536 -107.022318 352 12068ft 175kts
12-Jul-18 17:08 39.656139 -107.032876 346 14501ft 182kts
12-Jul-18 17:09 39.702046 -107.061405 334 16702ft 189kts
12-Jul-18 17:10 39.749086 -107.090896 333 18493ft 193kts
12-Jul-18 17:11 39.797740 -107.121627 333 19893ft 204kts
12-Jul-18 17:12 39.828013 -107.180368 296 21421ft 201kts
12-Jul-18 17:13 39.850854 -107.247319 294 22711ft 205kts
12-Jul-18 17:14 39.872997 -107.315080 293 23890ft 208kts
12-Jul-18 17:15 39.896761 -107.388704 293 24233ft 242kts
12-Jul-18 17:16 39.924241 -107.474270 293 24206ft 269kts
12-Jul-18 17:17 39.953762 -107.566571 293 24205ft 281kts
12-Jul-18 17:18 39.983990 -107.661435 292 24223ft 287kts
12-Jul-18 17:19 40.014721 -107.758203 292 24228ft 290kts
12-Jul-18 17:20 40.043614 -107.849509 292 24227ft 292kts
12-Jul-18 17:21 40.067183 -107.949615 276 24229ft 294kts
12-Jul-18 17:22 40.073291 -108.056320 275 24227ft 295kts
12-Jul-18 17:23 40.078247 -108.163183 274 24227ft 295kts
12-Jul-18 17:24 40.082974 -108.270047 274 24226ft 295kts
12-Jul-18 17:25 40.087593 -108.377067 274 24226ft 295kts
12-Jul-18 17:26 40.092109 -108.484070 274 24226ft 295kts
12-Jul-18 17:27 40.096519 -108.590871 274 24208ft 295kts
12-Jul-18 17:28 40.100043 -108.677976 274 24193ft 296kts
12-Jul-18 17:29 40.104268 -108.784581 274 24177ft 297kts
12-Jul-18 17:30 40.108366 -108.890508 274 24165ft 297kts
12-Jul-18 17:31 40.112435 -108.998199 274 24156ft 297kts
12-Jul-18 17:32 40.116387 -109.105431 274 24156ft 296kts
12-Jul-18 17:33 40.120242 -109.212728 274 24155ft 295kts
12-Jul-18 17:34 40.123968 -109.319070 274 24155ft 294kts
12-Jul-18 17:35 40.127603 -109.425691 274 24155ft 294kts
12-Jul-18 17:36 40.131149 -109.532580 274 24155ft 293kts
12-Jul-18 17:37 40.134575 -109.638827 274 24154ft 293kts
12-Jul-18 17:38 40.137852 -109.743469 273 24157ft 294kts
12-Jul-18 17:39 40.140530 -109.831262 273 24156ft 294kts
12-Jul-18 17:40 40.143662 -109.936800 273 24156ft 294kts
12-Jul-18 17:41 40.146734 -110.043623 273 24159ft 294kts
12-Jul-18 17:42 40.148751 -110.149677 271 24161ft 294kts
12-Jul-18 17:43 40.148075 -110.256027 271 24187ft 293kts
12-Jul-18 17:44 40.147188 -110.361738 271 24221ft 293kts
12-Jul-18 17:45 40.146193 -110.467243 271 24237ft 293kts
12-Jul-18 17:46 40.145103 -110.572502 271 24236ft 293kts
12-Jul-18 17:47 40.143893 -110.679538 270 24231ft 290kts
12-Jul-18 17:48 40.142608 -110.785094 270 24239ft 292kts
12-Jul-18 17:49 40.141224 -110.891100 270 23880ft 305kts
12-Jul-18 17:50 40.139621 -111.005587 270 22608ft 330kts
12-Jul-18 17:51 40.137777 -111.128171 270 21122ft 344kts
12-Jul-18 17:52 40.135745 -111.253961 270 19634ft 350kts
12-Jul-18 17:53 40.133558 -111.380533 270 18073ft 355kts
12-Jul-18 17:54 40.131320 -111.502457 270 16426ft 336kts
12-Jul-18 17:55 40.155906 -111.614223 295 14682ft 323kts
12-Jul-18 17:56 40.193422 -111.718411 296 13082ft 315kts
12-Jul-18 17:57 40.252062 -111.784742 330 11573ft 269kts
12-Jul-18 17:58 40.313472 -111.831512 331 9577ft 249kts
12-Jul-18 17:59 40.369746 -111.875941 331 8077ft 224kts
12-Jul-18 18:00 40.415985 -111.908036 350 8046ft 190kts
12-Jul-18 18:01 40.477057 -111.915279 0 8032ft 230kts
12-Jul-18 18:02 40.539781 -111.920038 357 7442ft 239kts
12-Jul-18 18:03 40.604816 -111.932788 348 6127ft 216kts
12-Jul-18 18:04 40.651669 -111.946733 348 5788ft 147kts
12-Jul-18 18:05 40.691650 -111.957511 351 5342ft 144kts
12-Jul-18 18:06 40.731337 -111.962192 358 5116ft 147kts
12-Jul-18 18:07 40.770524 -111.962097 358 4378ft 115kts
12-Jul-18 18:08 40.782401 -111.960586 89 4231ft 0kts
12-Jul-18 18:09 40.780488 -111.959985 179 4231ft 18kts
12-Jul-18 18:10 40.778113 -111.960638 179 4231ft 22kts

Navigation Log

Ident Type
Flight plan parsing failed, navigation log unavailable